« 定点 富山空港 2019/9/12 thu | トップページ | 定点 富山空港 2019/9/18 wed »

2019/09/16

令和元年航空祭inKOMATSU【B.I.編】 小松飛行場 2019/9/16 mon

T-4のエンジントラブルで長らく6機編隊でのフライトが出来なかったブルー・インパルスでしたが、めでたく6機でのフルアクロが実現しました。元ライダーの基地指令もさぞかし嬉しい今日だったのでは、ないでしょうか。今晩は、ノドクロで一杯やってるのかなぁ と、想像してみます。

RJNK 160300Z 02012KT 350V050 9999 FEW020 SCT035 28/22 Q1004

20190916_rjnk_bi00t265692

今日は午後から基地に入りましたが、列線前は、なんとか近づいて撮ることができる処も。

20190916_rjnk_bi01t265686

12時を回ってキーパーさんが配置に

20190916_rjnk_bi02t265692

ワン・ツー・スリィ・フォア・フィフ・シックス そろった

20190916_rjnk_bi03t265692

風は北で、チョット強いです。

20190916_rjnk_bi04t165666

アグのミノカサゴの後ろを通って・・

RJNK 160400Z 01013KT 340V040 9999 FEW015 SCT025 28/21 Q1004

20190916_rjnk_bi05t265692

例の件から離陸はインディビです 

20190916_rjnk_bi06t465731

あっと言う間に4機が離陸

20190916_rjnk_bi07

向こう正面で、隊形が出来上がります。

20190916_rjnk_bi08

スモック

20190916_rjnk_bi09

ダーティーターン

20190916_rjnk_bi10

山方面は、雲が厚い

20190916_rjnk_bi11

ロールオン・テイクオフ #6

20190916_rjnk_bi12

ローアングル・キューバン #5

20190916_rjnk_bi13

20190916_rjnk_bi14

ファン・ブレイク 一区分

20190916_rjnk_bi15

フォー・ポイント・ロール

20190916_rjnk_bi16

20190916_rjnk_bi17

チェンジ・オーバー・ターン

20190916_rjnk_bi18

インバーテッド&コンテュニアス・ロール なんですが・・

20190916_rjnk_bi19

斜めループ 初見

20190916_rjnk_bi20

雲にひっかかるのを回避したのかな(正式課目となる?)

20190916_rjnk_bi21

デルタ・ローパス 四区分に変更

20190916_rjnk_bi22

20190916_rjnk_bi23

インバーテッド・ロール

20190916_rjnk_bi24

スロー・ロール

20190916_rjnk_bi25

20190916_rjnk_bi26

20190916_rjnk_bi27

20190916_rjnk_bi28

レター・エイト

20190916_rjnk_bi29

ダブル・ナイフエッジ

20190916_rjnk_bi30

20190916_rjnk_bi31

20190916_rjnk_bi32

20190916_rjnk_bi33

ロールバック・アローヘッド

20190916_rjnk_bi34

20190916_rjnk_bi35

オポジット・コンティニュアス・ロール

20190916_rjnk_bi36

20190916_rjnk_bi37

フォー・シップ・インバート

20190916_rjnk_bi38

オリジナル・レベル・キューピッド

20190916_rjnk_bi39

ダイヤモンド・ローパス

20190916_rjnk_bi40

20190916_rjnk_bi41

オポジット・トライアングル

20190916_rjnk_bi42

20190916_rjnk_bi43

20190916_rjnk_bi44

デルタ・スリー・シックスティ・ターン

20190916_rjnk_bi45

20190916_rjnk_bi46

ダブル・ロールバック

20190916_rjnk_bi47

海自のC130がブーンとブルー見学

20190916_rjnk_bi48

20190916_rjnk_bi49

20190916_rjnk_bi50

ボントン・ロール

20190916_rjnk_bi51

20190916_rjnk_bi52

フェニックス・ローパス

20190916_rjnk_bi53

20190916_rjnk_bi54

20190916_rjnk_bi55

タック・クロスII

20190916_rjnk_bi56

20190916_rjnk_bi57

20190916_rjnk_bi58

ローリング・コンバット・ピッチ

20190916_rjnk_bi59

20190916_rjnk_bi60

20190916_rjnk_bi61

コーク・スクリュー

20190916_rjnk_bi62t265692

#1 26-5692

20190916_rjnk_bi63t265686

#2 26-5686

20190916_rjnk_bi64t665745

#3 66-5745

20190916_rjnk_bi65t465731

#4 46-5731

20190916_rjnk_bi66t265690

#5 26-5690

20190916_rjnk_bi67t165666

#6 16-5666

RJNK 160500Z 36013KT 9999 FEW008 BKN060 28/21 Q1004

20190916_rjnk_bi68t365697

#7 36-5697

7機そろったのも束の間。短い期間の訓練で、見事復活を遂げてくれました。今季のツアーも期待できます。

 

|

« 定点 富山空港 2019/9/12 thu | トップページ | 定点 富山空港 2019/9/18 wed »

小松飛行場」カテゴリの記事

BI」カテゴリの記事

コメント

コメントを書く



(ウェブ上には掲載しません)


コメントは記事投稿者が公開するまで表示されません。



« 定点 富山空港 2019/9/12 thu | トップページ | 定点 富山空港 2019/9/18 wed »